sensor_id;sensor_type;location;lat;lon;timestamp;temperature;humidity
19435;DHT22;9853;50.848;4.108;2022-10-31T00:00:26;15.60;99.90
19435;DHT22;9853;50.848;4.108;2022-10-31T00:02:27;15.60;99.90
19435;DHT22;9853;50.848;4.108;2022-10-31T00:04:27;15.60;99.90
19435;DHT22;9853;50.848;4.108;2022-10-31T00:06:29;15.50;99.90
19435;DHT22;9853;50.848;4.108;2022-10-31T00:08:30;15.50;99.90
19435;DHT22;9853;50.848;4.108;2022-10-31T00:10:30;15.40;99.90
19435;DHT22;9853;50.848;4.108;2022-10-31T00:12:31;15.50;99.90
19435;DHT22;9853;50.848;4.108;2022-10-31T00:14:32;15.40;99.90
19435;DHT22;9853;50.848;4.108;2022-10-31T00:16:32;15.40;99.90
19435;DHT22;9853;50.848;4.108;2022-10-31T00:18:33;15.40;99.90
19435;DHT22;9853;50.848;4.108;2022-10-31T00:20:34;15.50;99.90
19435;DHT22;9853;50.848;4.108;2022-10-31T00:22:35;15.50;99.90
19435;DHT22;9853;50.848;4.108;2022-10-31T00:24:35;15.50;99.90
19435;DHT22;9853;50.848;4.108;2022-10-31T00:26:36;15.40;99.90
19435;DHT22;9853;50.848;4.108;2022-10-31T00:28:37;15.30;99.90
19435;DHT22;9853;50.848;4.108;2022-10-31T00:30:38;15.10;99.90
19435;DHT22;9853;50.848;4.108;2022-10-31T00:32:38;15.00;99.90
19435;DHT22;9853;50.848;4.108;2022-10-31T00:34:39;15.00;99.90
19435;DHT22;9853;50.848;4.108;2022-10-31T00:36:40;14.90;99.90
19435;DHT22;9853;50.848;4.108;2022-10-31T00:38:41;14.80;99.90
19435;DHT22;9853;50.848;4.108;2022-10-31T00:40:42;14.70;99.90
19435;DHT22;9853;50.848;4.108;2022-10-31T00:42:43;14.70;99.90
19435;DHT22;9853;50.848;4.108;2022-10-31T00:44:44;14.70;99.90
19435;DHT22;9853;50.848;4.108;2022-10-31T00:46:45;14.60;99.90
19435;DHT22;9853;50.848;4.108;2022-10-31T00:48:45;14.60;99.90
19435;DHT22;9853;50.848;4.108;2022-10-31T00:50:46;14.60;99.90
19435;DHT22;9853;50.848;4.108;2022-10-31T00:52:47;14.70;99.90
19435;DHT22;9853;50.848;4.108;2022-10-31T00:54:47;14.60;99.90
19435;DHT22;9853;50.848;4.108;2022-10-31T00:56:48;14.50;99.90
19435;DHT22;9853;50.848;4.108;2022-10-31T00:58:49;14.50;99.90
19435;DHT22;9853;50.848;4.108;2022-10-31T01:00:49;14.50;99.90
19435;DHT22;9853;50.848;4.108;2022-10-31T01:02:56;14.50;99.90
19435;DHT22;9853;50.848;4.108;2022-10-31T01:04:57;14.40;99.90
19435;DHT22;9853;50.848;4.108;2022-10-31T01:06:58;14.40;99.90
19435;DHT22;9853;50.848;4.108;2022-10-31T01:08:58;14.40;99.90
19435;DHT22;9853;50.848;4.108;2022-10-31T01:11:07;14.40;99.90
19435;DHT22;9853;50.848;4.108;2022-10-31T01:13:07;14.40;99.90
19435;DHT22;9853;50.848;4.108;2022-10-31T01:15:09;14.40;99.90
19435;DHT22;9853;50.848;4.108;2022-10-31T01:17:11;14.30;99.90
19435;DHT22;9853;50.848;4.108;2022-10-31T01:19:12;14.20;99.90
19435;DHT22;9853;50.848;4.108;2022-10-31T01:21:16;14.20;99.90
19435;DHT22;9853;50.848;4.108;2022-10-31T01:23:17;14.20;99.90
19435;DHT22;9853;50.848;4.108;2022-10-31T01:25:17;14.30;99.90
19435;DHT22;9853;50.848;4.108;2022-10-31T01:27:18;14.20;99.90
19435;DHT22;9853;50.848;4.108;2022-10-31T01:29:20;14.30;99.90
19435;DHT22;9853;50.848;4.108;2022-10-31T01:31:23;14.10;99.90
19435;DHT22;9853;50.848;4.108;2022-10-31T01:33:24;14.20;99.90
19435;DHT22;9853;50.848;4.108;2022-10-31T01:35:25;14.20;99.90
19435;DHT22;9853;50.848;4.108;2022-10-31T01:37:26;14.10;99.90
19435;DHT22;9853;50.848;4.108;2022-10-31T01:39:27;14.20;99.90
19435;DHT22;9853;50.848;4.108;2022-10-31T01:41:30;14.20;99.90
19435;DHT22;9853;50.848;4.108;2022-10-31T01:43:44;14.20;99.90
19435;DHT22;9853;50.848;4.108;2022-10-31T01:45:52;14.20;99.90
19435;DHT22;9853;50.848;4.108;2022-10-31T01:47:53;14.20;99.90
19435;DHT22;9853;50.848;4.108;2022-10-31T01:49:57;14.20;99.90
19435;DHT22;9853;50.848;4.108;2022-10-31T01:52:14;14.20;99.90
19435;DHT22;9853;50.848;4.108;2022-10-31T01:54:20;14.20;99.90
19435;DHT22;9853;50.848;4.108;2022-10-31T01:56:22;14.20;99.90
19435;DHT22;9853;50.848;4.108;2022-10-31T01:58:26;14.20;99.90
19435;DHT22;9853;50.848;4.108;2022-10-31T02:00:28;14.20;99.90
19435;DHT22;9853;50.848;4.108;2022-10-31T02:02:30;14.20;99.90
19435;DHT22;9853;50.848;4.108;2022-10-31T02:04:32;14.20;99.90
19435;DHT22;9853;50.848;4.108;2022-10-31T02:06:41;14.20;99.90
19435;DHT22;9853;50.848;4.108;2022-10-31T02:08:46;14.10;99.90
19435;DHT22;9853;50.848;4.108;2022-10-31T02:10:47;14.10;99.90
19435;DHT22;9853;50.848;4.108;2022-10-31T02:12:52;14.10;99.90
19435;DHT22;9853;50.848;4.108;2022-10-31T02:14:53;14.10;99.90
19435;DHT22;9853;50.848;4.108;2022-10-31T02:16:54;14.00;99.90
19435;DHT22;9853;50.848;4.108;2022-10-31T02:18:55;14.00;99.90
19435;DHT22;9853;50.848;4.108;2022-10-31T02:21:11;14.00;99.90
19435;DHT22;9853;50.848;4.108;2022-10-31T02:25:35;14.00;99.90
19435;DHT22;9853;50.848;4.108;2022-10-31T02:30:18;13.80;99.90
19435;DHT22;9853;50.848;4.108;2022-10-31T02:37:10;13.70;99.90
19435;DHT22;9853;50.848;4.108;2022-10-31T02:39:25;13.80;99.90
19435;DHT22;9853;50.848;4.108;2022-10-31T02:41:34;13.80;99.90
19435;DHT22;9853;50.848;4.108;2022-10-31T02:46:42;13.80;99.90
19435;DHT22;9853;50.848;4.108;2022-10-31T02:48:47;13.80;99.90
19435;DHT22;9853;50.848;4.108;2022-10-31T02:50:54;13.70;99.90
19435;DHT22;9853;50.848;4.108;2022-10-31T02:52:56;13.70;99.90
19435;DHT22;9853;50.848;4.108;2022-10-31T02:55:10;13.70;99.90
19435;DHT22;9853;50.848;4.108;2022-10-31T02:57:12;13.70;99.90
19435;DHT22;9853;50.848;4.108;2022-10-31T02:59:14;13.70;99.90
19435;DHT22;9853;50.848;4.108;2022-10-31T03:05:55;13.80;99.90
19435;DHT22;9853;50.848;4.108;2022-10-31T03:08:32;13.70;99.90
19435;DHT22;9853;50.848;4.108;2022-10-31T03:10:45;13.70;99.90
19435;DHT22;9853;50.848;4.108;2022-10-31T03:17:05;13.50;99.90
19435;DHT22;9853;50.848;4.108;2022-10-31T03:19:11;13.50;99.90
19435;DHT22;9853;50.848;4.108;2022-10-31T03:21:18;13.40;99.90
19435;DHT22;9853;50.848;4.108;2022-10-31T03:23:22;13.50;99.90
19435;DHT22;9853;50.848;4.108;2022-10-31T03:25:26;13.50;99.90
19435;DHT22;9853;50.848;4.108;2022-10-31T03:27:33;13.50;99.90
19435;DHT22;9853;50.848;4.108;2022-10-31T03:29:36;13.50;99.90
19435;DHT22;9853;50.848;4.108;2022-10-31T03:31:44;13.50;99.90
19435;DHT22;9853;50.848;4.108;2022-10-31T03:33:49;13.60;99.90
19435;DHT22;9853;50.848;4.108;2022-10-31T03:35:53;13.50;99.90
19435;DHT22;9853;50.848;4.108;2022-10-31T03:37:55;13.50;99.90
19435;DHT22;9853;50.848;4.108;2022-10-31T03:39:58;13.50;99.90
19435;DHT22;9853;50.848;4.108;2022-10-31T03:42:05;13.60;99.90
19435;DHT22;9853;50.848;4.108;2022-10-31T03:44:12;13.60;99.90
19435;DHT22;9853;50.848;4.108;2022-10-31T03:46:16;13.50;99.90
19435;DHT22;9853;50.848;4.108;2022-10-31T03:48:19;13.40;99.90
19435;DHT22;9853;50.848;4.108;2022-10-31T03:50:21;13.40;99.90
19435;DHT22;9853;50.848;4.108;2022-10-31T03:52:49;13.40;99.90
19435;DHT22;9853;50.848;4.108;2022-10-31T03:55:19;13.50;99.90
19435;DHT22;9853;50.848;4.108;2022-10-31T03:57:43;13.50;99.90
19435;DHT22;9853;50.848;4.108;2022-10-31T03:59:50;13.50;99.90
19435;DHT22;9853;50.848;4.108;2022-10-31T04:01:55;13.50;99.90
19435;DHT22;9853;50.848;4.108;2022-10-31T04:03:58;13.40;99.90
19435;DHT22;9853;50.848;4.108;2022-10-31T04:06:03;13.30;99.90
19435;DHT22;9853;50.848;4.108;2022-10-31T04:08:14;13.40;99.90
19435;DHT22;9853;50.848;4.108;2022-10-31T04:10:16;13.40;99.90
19435;DHT22;9853;50.848;4.108;2022-10-31T04:12:17;13.50;99.90
19435;DHT22;9853;50.848;4.108;2022-10-31T04:14:44;13.50;99.90
19435;DHT22;9853;50.848;4.108;2022-10-31T04:16:47;13.50;99.90
19435;DHT22;9853;50.848;4.108;2022-10-31T04:18:47;13.50;99.90
19435;DHT22;9853;50.848;4.108;2022-10-31T04:21:04;13.60;99.90
19435;DHT22;9853;50.848;4.108;2022-10-31T04:23:16;13.60;99.90
19435;DHT22;9853;50.848;4.108;2022-10-31T04:25:19;13.50;99.90
19435;DHT22;9853;50.848;4.108;2022-10-31T04:27:19;13.40;99.90
19435;DHT22;9853;50.848;4.108;2022-10-31T04:29:20;13.50;99.90
19435;DHT22;9853;50.848;4.108;2022-10-31T04:31:21;13.40;99.90
19435;DHT22;9853;50.848;4.108;2022-10-31T04:33:23;13.40;99.90
19435;DHT22;9853;50.848;4.108;2022-10-31T04:35:24;13.40;99.90
19435;DHT22;9853;50.848;4.108;2022-10-31T04:37:26;13.40;99.90
19435;DHT22;9853;50.848;4.108;2022-10-31T04:39:27;13.40;99.90
19435;DHT22;9853;50.848;4.108;2022-10-31T04:41:48;13.40;99.90
19435;DHT22;9853;50.848;4.108;2022-10-31T04:43:49;13.50;99.90
19435;DHT22;9853;50.848;4.108;2022-10-31T04:45:50;13.50;99.90
19435;DHT22;9853;50.848;4.108;2022-10-31T04:47:51;13.60;99.90
19435;DHT22;9853;50.848;4.108;2022-10-31T04:49:51;13.40;99.90
19435;DHT22;9853;50.848;4.108;2022-10-31T04:51:52;13.30;99.90
19435;DHT22;9853;50.848;4.108;2022-10-31T04:53:53;13.10;99.90
19435;DHT22;9853;50.848;4.108;2022-10-31T04:56:16;13.10;99.90
19435;DHT22;9853;50.848;4.108;2022-10-31T04:58:20;13.00;99.90
19435;DHT22;9853;50.848;4.108;2022-10-31T05:00:22;12.80;99.90
19435;DHT22;9853;50.848;4.108;2022-10-31T05:02:24;12.90;99.90
19435;DHT22;9853;50.848;4.108;2022-10-31T05:04:29;12.90;99.90
19435;DHT22;9853;50.848;4.108;2022-10-31T05:06:31;13.00;99.90
19435;DHT22;9853;50.848;4.108;2022-10-31T05:08:33;13.10;99.90
19435;DHT22;9853;50.848;4.108;2022-10-31T05:10:36;13.10;99.90
19435;DHT22;9853;50.848;4.108;2022-10-31T05:12:44;13.00;99.90
19435;DHT22;9853;50.848;4.108;2022-10-31T05:15:15;13.00;99.90
19435;DHT22;9853;50.848;4.108;2022-10-31T05:17:35;13.00;99.90
19435;DHT22;9853;50.848;4.108;2022-10-31T05:19:58;13.00;99.90
19435;DHT22;9853;50.848;4.108;2022-10-31T05:22:31;12.90;99.90
19435;DHT22;9853;50.848;4.108;2022-10-31T05:24:32;12.80;99.90
19435;DHT22;9853;50.848;4.108;2022-10-31T05:26:32;12.90;99.90
19435;DHT22;9853;50.848;4.108;2022-10-31T05:28:33;12.90;99.90
19435;DHT22;9853;50.848;4.108;2022-10-31T05:30:35;13.00;99.90
19435;DHT22;9853;50.848;4.108;2022-10-31T05:32:42;13.10;99.90
19435;DHT22;9853;50.848;4.108;2022-10-31T05:35:24;13.10;99.90
19435;DHT22;9853;50.848;4.108;2022-10-31T05:37:53;13.10;99.90
19435;DHT22;9853;50.848;4.108;2022-10-31T05:39:54;13.20;99.90
19435;DHT22;9853;50.848;4.108;2022-10-31T05:41:55;13.20;99.90
19435;DHT22;9853;50.848;4.108;2022-10-31T05:44:00;13.20;99.90
19435;DHT22;9853;50.848;4.108;2022-10-31T05:46:03;13.30;99.90
19435;DHT22;9853;50.848;4.108;2022-10-31T05:48:24;13.30;99.90
19435;DHT22;9853;50.848;4.108;2022-10-31T05:51:03;13.30;99.90
19435;DHT22;9853;50.848;4.108;2022-10-31T05:53:05;13.30;99.90
19435;DHT22;9853;50.848;4.108;2022-10-31T05:55:10;13.40;99.90
19435;DHT22;9853;50.848;4.108;2022-10-31T05:57:14;13.50;99.90
19435;DHT22;9853;50.848;4.108;2022-10-31T05:59:15;13.50;99.90
19435;DHT22;9853;50.848;4.108;2022-10-31T06:01:15;13.50;99.90
19435;DHT22;9853;50.848;4.108;2022-10-31T06:03:19;13.50;99.90
19435;DHT22;9853;50.848;4.108;2022-10-31T06:05:26;13.50;99.90
19435;DHT22;9853;50.848;4.108;2022-10-31T06:07:32;13.50;99.90
19435;DHT22;9853;50.848;4.108;2022-10-31T06:09:34;13.60;99.90
19435;DHT22;9853;50.848;4.108;2022-10-31T06:11:35;13.60;99.90
19435;DHT22;9853;50.848;4.108;2022-10-31T06:13:35;13.60;99.90
19435;DHT22;9853;50.848;4.108;2022-10-31T06:15:48;13.70;99.90
19435;DHT22;9853;50.848;4.108;2022-10-31T06:17:59;13.70;99.90
19435;DHT22;9853;50.848;4.108;2022-10-31T06:20:01;13.90;99.90
19435;DHT22;9853;50.848;4.108;2022-10-31T06:22:04;13.80;99.90
19435;DHT22;9853;50.848;4.108;2022-10-31T06:24:06;13.80;99.90
19435;DHT22;9853;50.848;4.108;2022-10-31T06:26:30;13.80;99.90
19435;DHT22;9853;50.848;4.108;2022-10-31T06:28:31;13.80;99.90
19435;DHT22;9853;50.848;4.108;2022-10-31T06:30:45;13.70;99.90
19435;DHT22;9853;50.848;4.108;2022-10-31T06:32:46;13.70;99.90
19435;DHT22;9853;50.848;4.108;2022-10-31T06:34:47;13.70;99.90
19435;DHT22;9853;50.848;4.108;2022-10-31T06:36:50;13.70;99.90
19435;DHT22;9853;50.848;4.108;2022-10-31T06:38:54;13.60;99.90
19435;DHT22;9853;50.848;4.108;2022-10-31T06:40:57;13.60;99.90
19435;DHT22;9853;50.848;4.108;2022-10-31T06:43:02;13.50;99.90
19435;DHT22;9853;50.848;4.108;2022-10-31T06:45:04;13.50;99.90
19435;DHT22;9853;50.848;4.108;2022-10-31T06:47:50;13.60;99.90
19435;DHT22;9853;50.848;4.108;2022-10-31T06:49:57;13.80;99.90
19435;DHT22;9853;50.848;4.108;2022-10-31T06:51:59;13.70;99.90
19435;DHT22;9853;50.848;4.108;2022-10-31T06:54:00;13.60;99.90
19435;DHT22;9853;50.848;4.108;2022-10-31T06:56:01;13.60;99.90
19435;DHT22;9853;50.848;4.108;2022-10-31T06:58:03;13.60;99.90
19435;DHT22;9853;50.848;4.108;2022-10-31T07:00:05;13.80;99.90
19435;DHT22;9853;50.848;4.108;2022-10-31T07:02:10;13.80;99.90
19435;DHT22;9853;50.848;4.108;2022-10-31T07:04:12;13.90;99.90
19435;DHT22;9853;50.848;4.108;2022-10-31T07:06:13;13.90;99.90
19435;DHT22;9853;50.848;4.108;2022-10-31T07:08:14;13.80;99.90
19435;DHT22;9853;50.848;4.108;2022-10-31T07:10:15;13.90;99.90
19435;DHT22;9853;50.848;4.108;2022-10-31T07:12:27;14.00;99.90
19435;DHT22;9853;50.848;4.108;2022-10-31T07:14:32;14.10;99.90
19435;DHT22;9853;50.848;4.108;2022-10-31T07:16:33;14.20;99.90
19435;DHT22;9853;50.848;4.108;2022-10-31T07:18:34;14.10;99.90
19435;DHT22;9853;50.848;4.108;2022-10-31T07:20:35;14.00;99.90
19435;DHT22;9853;50.848;4.108;2022-10-31T07:22:37;14.00;99.90
19435;DHT22;9853;50.848;4.108;2022-10-31T07:24:40;14.20;99.90
19435;DHT22;9853;50.848;4.108;2022-10-31T07:27:00;14.20;99.90
19435;DHT22;9853;50.848;4.108;2022-10-31T07:29:00;14.30;99.90
19435;DHT22;9853;50.848;4.108;2022-10-31T07:31:02;14.30;99.90
19435;DHT22;9853;50.848;4.108;2022-10-31T07:33:03;14.40;99.90
19435;DHT22;9853;50.848;4.108;2022-10-31T07:35:30;14.50;99.90
19435;DHT22;9853;50.848;4.108;2022-10-31T07:37:32;14.60;99.90
19435;DHT22;9853;50.848;4.108;2022-10-31T07:39:33;14.70;99.90
19435;DHT22;9853;50.848;4.108;2022-10-31T07:41:34;14.80;99.90
19435;DHT22;9853;50.848;4.108;2022-10-31T07:43:35;14.60;99.90
19435;DHT22;9853;50.848;4.108;2022-10-31T07:45:54;14.60;99.90
19435;DHT22;9853;50.848;4.108;2022-10-31T07:48:32;14.60;99.90
19435;DHT22;9853;50.848;4.108;2022-10-31T07:50:52;14.60;99.90
19435;DHT22;9853;50.848;4.108;2022-10-31T07:53:12;14.50;99.90
19435;DHT22;9853;50.848;4.108;2022-10-31T07:55:36;14.50;99.90
19435;DHT22;9853;50.848;4.108;2022-10-31T07:57:37;14.40;99.90
19435;DHT22;9853;50.848;4.108;2022-10-31T07:59:38;14.50;99.90
19435;DHT22;9853;50.848;4.108;2022-10-31T08:01:40;14.60;99.90
19435;DHT22;9853;50.848;4.108;2022-10-31T08:04:13;14.80;99.90
19435;DHT22;9853;50.848;4.108;2022-10-31T08:06:34;14.70;99.90
19435;DHT22;9853;50.848;4.108;2022-10-31T08:08:47;14.50;99.90
19435;DHT22;9853;50.848;4.108;2022-10-31T08:10:48;14.50;99.90
19435;DHT22;9853;50.848;4.108;2022-10-31T08:12:55;14.60;99.90
19435;DHT22;9853;50.848;4.108;2022-10-31T08:14:57;14.80;99.90
19435;DHT22;9853;50.848;4.108;2022-10-31T08:16:57;14.90;99.90
19435;DHT22;9853;50.848;4.108;2022-10-31T08:19:04;14.90;99.90
19435;DHT22;9853;50.848;4.108;2022-10-31T08:21:10;14.90;99.90
19435;DHT22;9853;50.848;4.108;2022-10-31T08:23:12;15.00;99.90
19435;DHT22;9853;50.848;4.108;2022-10-31T08:25:15;15.30;99.90
19435;DHT22;9853;50.848;4.108;2022-10-31T08:27:16;15.50;99.90
19435;DHT22;9853;50.848;4.108;2022-10-31T08:29:17;15.70;99.90
19435;DHT22;9853;50.848;4.108;2022-10-31T08:31:18;15.90;99.90
19435;DHT22;9853;50.848;4.108;2022-10-31T08:33:19;16.30;99.90
19435;DHT22;9853;50.848;4.108;2022-10-31T08:35:39;16.50;99.90
19435;DHT22;9853;50.848;4.108;2022-10-31T08:38:00;16.30;99.90
19435;DHT22;9853;50.848;4.108;2022-10-31T08:40:01;15.90;99.90
19435;DHT22;9853;50.848;4.108;2022-10-31T08:42:07;15.90;99.90
19435;DHT22;9853;50.848;4.108;2022-10-31T08:44:08;15.90;99.90
19435;DHT22;9853;50.848;4.108;2022-10-31T08:46:09;15.70;99.90
19435;DHT22;9853;50.848;4.108;2022-10-31T08:48:15;15.40;99.90
19435;DHT22;9853;50.848;4.108;2022-10-31T08:50:16;15.30;99.90
19435;DHT22;9853;50.848;4.108;2022-10-31T08:52:22;15.10;99.90
19435;DHT22;9853;50.848;4.108;2022-10-31T08:54:23;15.10;99.90
19435;DHT22;9853;50.848;4.108;2022-10-31T08:56:30;15.00;99.90
19435;DHT22;9853;50.848;4.108;2022-10-31T08:58:30;14.80;99.90
19435;DHT22;9853;50.848;4.108;2022-10-31T09:00:35;14.60;99.90
19435;DHT22;9853;50.848;4.108;2022-10-31T09:02:58;14.50;99.90
19435;DHT22;9853;50.848;4.108;2022-10-31T09:04:59;14.70;99.90
19435;DHT22;9853;50.848;4.108;2022-10-31T09:07:00;14.70;99.90
19435;DHT22;9853;50.848;4.108;2022-10-31T09:09:01;14.90;99.90
19435;DHT22;9853;50.848;4.108;2022-10-31T09:11:02;15.10;99.90
19435;DHT22;9853;50.848;4.108;2022-10-31T09:13:32;15.20;99.90
19435;DHT22;9853;50.848;4.108;2022-10-31T09:15:56;15.30;99.90
19435;DHT22;9853;50.848;4.108;2022-10-31T09:17:59;15.40;99.90
19435;DHT22;9853;50.848;4.108;2022-10-31T09:20:16;15.30;99.90
19435;DHT22;9853;50.848;4.108;2022-10-31T09:22:16;15.10;99.90
19435;DHT22;9853;50.848;4.108;2022-10-31T09:24:18;14.80;99.90
19435;DHT22;9853;50.848;4.108;2022-10-31T09:26:18;14.70;99.90
19435;DHT22;9853;50.848;4.108;2022-10-31T09:28:31;14.60;99.90
19435;DHT22;9853;50.848;4.108;2022-10-31T09:30:38;14.70;99.90
19435;DHT22;9853;50.848;4.108;2022-10-31T09:32:38;14.90;99.90
19435;DHT22;9853;50.848;4.108;2022-10-31T09:34:40;15.00;99.90
19435;DHT22;9853;50.848;4.108;2022-10-31T09:36:44;15.10;99.90
19435;DHT22;9853;50.848;4.108;2022-10-31T09:38:54;15.30;99.90
19435;DHT22;9853;50.848;4.108;2022-10-31T09:41:59;15.40;99.90
19435;DHT22;9853;50.848;4.108;2022-10-31T09:44:07;15.60;99.90
19435;DHT22;9853;50.848;4.108;2022-10-31T09:46:12;15.70;99.90
19435;DHT22;9853;50.848;4.108;2022-10-31T09:51:08;15.90;99.90
19435;DHT22;9853;50.848;4.108;2022-10-31T09:53:34;16.00;99.90
19435;DHT22;9853;50.848;4.108;2022-10-31T09:55:42;15.90;99.90
19435;DHT22;9853;50.848;4.108;2022-10-31T09:57:44;15.80;99.90
19435;DHT22;9853;50.848;4.108;2022-10-31T09:59:47;16.00;99.90
19435;DHT22;9853;50.848;4.108;2022-10-31T10:01:56;16.40;99.90
19435;DHT22;9853;50.848;4.108;2022-10-31T10:04:50;16.40;99.90
19435;DHT22;9853;50.848;4.108;2022-10-31T10:06:35;16.50;99.90
19435;DHT22;9853;50.848;4.108;2022-10-31T10:08:56;16.40;99.90
19435;DHT22;9853;50.848;4.108;2022-10-31T10:25:37;18.10;99.90
19435;DHT22;9853;50.848;4.108;2022-10-31T10:28:01;17.80;99.90
19435;DHT22;9853;50.848;4.108;2022-10-31T10:32:29;17.60;99.90
19435;DHT22;9853;50.848;4.108;2022-10-31T10:34:36;17.30;99.90
19435;DHT22;9853;50.848;4.108;2022-10-31T10:36:57;17.10;99.90
19435;DHT22;9853;50.848;4.108;2022-10-31T10:39:31;17.00;99.90
19435;DHT22;9853;50.848;4.108;2022-10-31T10:41:33;16.70;99.90
19435;DHT22;9853;50.848;4.108;2022-10-31T10:43:36;16.90;99.90
19435;DHT22;9853;50.848;4.108;2022-10-31T10:45:37;17.00;99.90
19435;DHT22;9853;50.848;4.108;2022-10-31T10:48:05;17.20;99.90
19435;DHT22;9853;50.848;4.108;2022-10-31T10:50:16;17.60;99.90
19435;DHT22;9853;50.848;4.108;2022-10-31T10:55:00;17.70;99.90
19435;DHT22;9853;50.848;4.108;2022-10-31T10:59:21;17.80;99.90
19435;DHT22;9853;50.848;4.108;2022-10-31T11:01:22;17.70;99.90
19435;DHT22;9853;50.848;4.108;2022-10-31T11:03:23;17.60;99.90
19435;DHT22;9853;50.848;4.108;2022-10-31T11:05:44;17.40;99.90
19435;DHT22;9853;50.848;4.108;2022-10-31T11:07:46;17.10;99.90
19435;DHT22;9853;50.848;4.108;2022-10-31T11:09:47;16.90;99.90
19435;DHT22;9853;50.848;4.108;2022-10-31T11:11:48;17.10;99.90
19435;DHT22;9853;50.848;4.108;2022-10-31T11:13:53;17.20;99.90
19435;DHT22;9853;50.848;4.108;2022-10-31T11:16:27;17.00;99.90
19435;DHT22;9853;50.848;4.108;2022-10-31T11:18:31;17.00;99.90
19435;DHT22;9853;50.848;4.108;2022-10-31T11:20:34;17.10;99.90
19435;DHT22;9853;50.848;4.108;2022-10-31T11:22:36;17.10;99.90
19435;DHT22;9853;50.848;4.108;2022-10-31T11:24:41;17.30;99.90
19435;DHT22;9853;50.848;4.108;2022-10-31T11:26:44;17.30;99.90
19435;DHT22;9853;50.848;4.108;2022-10-31T11:28:56;17.20;99.90
19435;DHT22;9853;50.848;4.108;2022-10-31T11:31:22;16.90;99.90
19435;DHT22;9853;50.848;4.108;2022-10-31T11:35:32;17.10;99.90
19435;DHT22;9853;50.848;4.108;2022-10-31T11:37:35;17.20;99.90
19435;DHT22;9853;50.848;4.108;2022-10-31T11:39:43;17.30;99.90
19435;DHT22;9853;50.848;4.108;2022-10-31T11:41:44;17.60;99.90
19435;DHT22;9853;50.848;4.108;2022-10-31T11:43:50;17.50;99.90
19435;DHT22;9853;50.848;4.108;2022-10-31T11:45:51;17.30;99.90
19435;DHT22;9853;50.848;4.108;2022-10-31T11:47:54;17.30;99.90
19435;DHT22;9853;50.848;4.108;2022-10-31T11:49:56;17.40;99.90
19435;DHT22;9853;50.848;4.108;2022-10-31T11:52:00;17.90;99.90
19435;DHT22;9853;50.848;4.108;2022-10-31T11:54:03;17.50;99.90
19435;DHT22;9853;50.848;4.108;2022-10-31T11:56:14;17.70;99.90
19435;DHT22;9853;50.848;4.108;2022-10-31T11:58:24;17.60;99.90
19435;DHT22;9853;50.848;4.108;2022-10-31T12:00:29;17.50;99.90
19435;DHT22;9853;50.848;4.108;2022-10-31T12:02:30;17.60;99.90
19435;DHT22;9853;50.848;4.108;2022-10-31T12:04:46;17.70;99.90
19435;DHT22;9853;50.848;4.108;2022-10-31T12:06:47;17.90;99.90
19435;DHT22;9853;50.848;4.108;2022-10-31T12:08:49;18.10;99.90
19435;DHT22;9853;50.848;4.108;2022-10-31T12:13:39;18.30;99.90
19435;DHT22;9853;50.848;4.108;2022-10-31T12:15:50;18.10;99.90
19435;DHT22;9853;50.848;4.108;2022-10-31T12:18:28;18.20;99.90
19435;DHT22;9853;50.848;4.108;2022-10-31T12:23:06;18.50;99.90
19435;DHT22;9853;50.848;4.108;2022-10-31T12:26:03;18.50;99.90
19435;DHT22;9853;50.848;4.108;2022-10-31T12:27:45;18.80;99.90
19435;DHT22;9853;50.848;4.108;2022-10-31T12:30:13;19.20;99.90
19435;DHT22;9853;50.848;4.108;2022-10-31T12:45:57;18.90;99.90
19435;DHT22;9853;50.848;4.108;2022-10-31T12:55:29;18.90;99.90
19435;DHT22;9853;50.848;4.108;2022-10-31T12:59:43;18.80;99.90
19435;DHT22;9853;50.848;4.108;2022-10-31T13:01:53;18.80;99.90
19435;DHT22;9853;50.848;4.108;2022-10-31T13:06:40;19.50;99.90
19435;DHT22;9853;50.848;4.108;2022-10-31T13:08:54;19.90;99.90
19435;DHT22;9853;50.848;4.108;2022-10-31T13:13:09;19.80;99.90
19435;DHT22;9853;50.848;4.108;2022-10-31T13:15:48;20.10;99.90
19435;DHT22;9853;50.848;4.108;2022-10-31T13:17:44;20.20;99.90
19435;DHT22;9853;50.848;4.108;2022-10-31T13:19:46;19.90;99.90
19435;DHT22;9853;50.848;4.108;2022-10-31T13:22:02;19.80;99.90
19435;DHT22;9853;50.848;4.108;2022-10-31T13:24:16;19.90;99.90
19435;DHT22;9853;50.848;4.108;2022-10-31T13:26:33;19.60;99.90
19435;DHT22;9853;50.848;4.108;2022-10-31T13:28:57;19.80;99.90
19435;DHT22;9853;50.848;4.108;2022-10-31T13:31:00;20.00;99.90
19435;DHT22;9853;50.848;4.108;2022-10-31T13:35:19;19.60;99.90
19435;DHT22;9853;50.848;4.108;2022-10-31T13:37:40;19.50;99.90
19435;DHT22;9853;50.848;4.108;2022-10-31T13:42:00;19.40;99.90
19435;DHT22;9853;50.848;4.108;2022-10-31T13:44:20;19.60;99.90
19435;DHT22;9853;50.848;4.108;2022-10-31T13:46:43;19.60;99.90
19435;DHT22;9853;50.848;4.108;2022-10-31T13:48:44;19.50;99.90
19435;DHT22;9853;50.848;4.108;2022-10-31T13:51:05;19.50;99.90
19435;DHT22;9853;50.848;4.108;2022-10-31T13:53:43;19.50;99.90
19435;DHT22;9853;50.848;4.108;2022-10-31T13:55:47;19.50;99.90
19435;DHT22;9853;50.848;4.108;2022-10-31T13:57:48;19.60;99.90
19435;DHT22;9853;50.848;4.108;2022-10-31T13:59:52;19.90;99.90
19435;DHT22;9853;50.848;4.108;2022-10-31T14:01:59;19.90;99.90
19435;DHT22;9853;50.848;4.108;2022-10-31T14:06:09;19.90;99.90
19435;DHT22;9853;50.848;4.108;2022-10-31T14:08:19;19.90;99.90
19435;DHT22;9853;50.848;4.108;2022-10-31T14:10:28;19.90;99.90
19435;DHT22;9853;50.848;4.108;2022-10-31T14:14:50;19.80;99.90
19435;DHT22;9853;50.848;4.108;2022-10-31T14:16:56;19.90;99.90
19435;DHT22;9853;50.848;4.108;2022-10-31T14:19:05;19.90;99.90
19435;DHT22;9853;50.848;4.108;2022-10-31T14:21:37;19.70;99.90
19435;DHT22;9853;50.848;4.108;2022-10-31T14:23:38;19.50;99.90
19435;DHT22;9853;50.848;4.108;2022-10-31T14:25:40;19.30;99.90
19435;DHT22;9853;50.848;4.108;2022-10-31T14:27:46;19.40;99.90
19435;DHT22;9853;50.848;4.108;2022-10-31T14:29:47;19.40;99.90
19435;DHT22;9853;50.848;4.108;2022-10-31T14:33:54;19.90;99.90
19435;DHT22;9853;50.848;4.108;2022-10-31T14:38:41;19.60;99.90
19435;DHT22;9853;50.848;4.108;2022-10-31T14:41:03;19.60;99.90
19435;DHT22;9853;50.848;4.108;2022-10-31T14:45:47;19.90;99.90
19435;DHT22;9853;50.848;4.108;2022-10-31T14:50:41;19.90;99.90
19435;DHT22;9853;50.848;4.108;2022-10-31T14:52:47;20.00;99.90
19435;DHT22;9853;50.848;4.108;2022-10-31T14:54:52;20.20;99.90
19435;DHT22;9853;50.848;4.108;2022-10-31T14:56:56;20.20;99.90
19435;DHT22;9853;50.848;4.108;2022-10-31T14:59:09;20.20;99.90
19435;DHT22;9853;50.848;4.108;2022-10-31T15:01:31;20.30;99.90
19435;DHT22;9853;50.848;4.108;2022-10-31T15:03:42;20.40;99.90
19435;DHT22;9853;50.848;4.108;2022-10-31T15:05:52;20.40;99.90
19435;DHT22;9853;50.848;4.108;2022-10-31T15:07:58;20.40;99.90
19435;DHT22;9853;50.848;4.108;2022-10-31T15:10:05;20.30;99.90
19435;DHT22;9853;50.848;4.108;2022-10-31T15:12:29;20.40;99.90
19435;DHT22;9853;50.848;4.108;2022-10-31T15:14:31;20.30;99.90
19435;DHT22;9853;50.848;4.108;2022-10-31T15:16:34;20.20;99.90